Weather observations for the past three days for
Pinedale, Ralph Wenz Field Airport
Metric (Imperial)
Date Time (mdt) Wind (kph) Vis. (km) Weather Sky Cond. Temperature (ºC) Relative Humidity Wind Chill (°C) Heat Index (°C) Pressure Precipitation (cm)
Air Dwpt 6 hour altimeter (cm) sea level (mb) 1 hr 3 hr 6 hr
Max. Min.
03 19:55 NW 13 16.09 Fair CLR 15 -8 20% 76.1 0.0
03 19:35 NW 20 16.09 Partly Cloudy SCT110 16 -10 16% 76.1 0.0
03 19:15 W 20 G 33 16.09 Partly Cloudy SCT110 16 -10 16% 76.12 0.0
03 18:55 W 13 16.09 Fair CLR 16 -10 16% 76.12 0.0
03 18:35 W 19 16.09 Fair CLR 17 -10 15% 76.12 0.0
03 18:15 NW 24 G 33 16.09 Fair CLR 17 -11 14% 76.12 0.0
03 17:55 NW 24 G 37 16.09 Partly Cloudy SCT110 17 -10 15% 76.12 0.0
03 17:35 NW 22 16.09 Fair CLR 17 -10 15% 76.12 0.0
03 17:15 W 22 G 30 16.09 Partly Cloudy SCT110 17 -11 14% 76.15 0.0
03 16:55 NW 28 G 37 16.09 Partly Cloudy SCT110 18 -10 14% 76.15 0.0
03 16:35 W 22 G 37 16.09 Fair CLR 17 -10 15% 76.17 0.0
03 16:15 W 28 G 33 16.09 Partly Cloudy SCT110 18 -11 13% 76.2 0.0
03 15:55 W 20 G 43 16.09 Partly Cloudy SCT110 17 -11 14% 76.23 0.0
03 15:35 W 26 G 39 16.09 Fair CLR 18 -10 14% 76.23 0.0
03 15:15 W 9 16.09 Fair CLR 18 -11 13% 76.23 0.0
03 14:55 W 17 G 33 16.09 Partly Cloudy SCT110 17 -12 13% 76.28 0.0
03 14:35 W 19 G 35 16.09 Mostly Cloudy BKN110 18 -11 13% 76.28 0.0
03 14:15 W 20 G 30 16.09 Partly Cloudy SCT110 17 -11 14% 76.3 0.0
03 13:55 W 19 G 37 16.09 Fair CLR 18 -11 13% 76.33 0.0
03 13:35 W 31 G 39 16.09 Partly Cloudy SCT110 18 -10 14% 76.33 0.0
03 13:15 NW 17 G 30 16.09 Mostly Cloudy BKN110 17 -10 15% 76.33 0.0
03 12:35 SW 15 G 30 16.09 Mostly Cloudy BKN110 17 -9 16% 76.38 0.0
03 12:15 W 19 G 33 16.09 Partly Cloudy SCT100 16 -10 16% 76.4 0.0
03 11:55 NW 19 16.09 Fair CLR 16 -10 16% 76.43 0.0
03 11:35 NW 17 16.09 Fair CLR 15 -10 17% 76.45 0.0
03 11:15 W 19 G 26 16.09 Fair CLR 15 -11 16% 76.48 0.0
03 10:55 NW 9 16.09 Fair CLR 14 -10 18% 76.48 0.0
03 10:35 W 9 16.09 Fair CLR 14 -8 21% 76.48 0.0
03 10:15 Calm 16.09 Fair CLR 13 -8 23% 76.5 0.0
03 09:55 Calm 16.09 Fair CLR 12 -5 30% 76.53 0.0
03 09:35 Calm 16.09 Fair CLR 10 -6 32% 76.53 0.0
03 09:15 Calm 16.09 Fair CLR 9 -5 37% 76.56 0.0
03 08:55 Calm 16.09 Fair CLR 7 -3 49% 76.53 0.0
03 08:35 Calm 16.09 Fair CLR 5 -3 57% 76.56 0.0
03 08:15 NW 7 16.09 Fair CLR 3 -3 65% 1 76.56 0.0
03 07:55 NW 9 16.09 Fair CLR 2 -5 60% -0 76.58 0.0
03 07:35 NW 13 16.09 Fair CLR 0 -5 69% -4 76.58 0.0
03 07:15 NW 11 16.09 Fair CLR -1 -5 75% -4 76.56 0.0
03 06:35 W 11 16.09 Fair CLR -3 -6 80% -7 76.56 0.0
03 06:15 NW 7 16.09 Fair CLR -3 -6 80% -6 76.53 0.0
03 05:55 W 11 16.09 Fair CLR -3 -6 80% -7 76.53 0.0
03 05:35 NW 9 16.09 Fair CLR -3 -6 80% -6 76.53 0.0
03 05:15 NW 6 16.09 Fair CLR -2 -6 74% 76.53 0.0
03 04:55 NW 9 16.09 Fair CLR -2 -6 74% -5 76.53 0.0
03 04:35 NW 9 16.09 Fair CLR -2 -6 74% -5 76.53 0.0
03 04:15 W 11 16.09 Fair CLR -2 -6 74% -6 76.56 0.0
03 03:55 W 7 16.09 Fair CLR -1 -6 69% -3 76.56 0.0
03 03:35 NW 13 16.09 Fair CLR -1 -6 69% -5 76.53 0.0
03 03:15 W 9 16.09 Fair CLR -1 -5 75% -4 76.53 0.0
03 02:55 NW 9 16.09 Fair CLR 0 -5 69% -3 76.53 0.0
03 02:35 NW 11 16.09 Fair CLR 0 -5 69% -3 76.56 0.0
03 02:15 W 7 16.09 Fair CLR -1 -5 75% -3 76.56 0.0
03 01:55 W 11 16.09 Fair CLR 0 -5 69% -3 76.56 0.0
03 01:35 NW 9 16.09 Fair CLR 0 -5 69% -3 76.56 0.0
03 01:15 W 6 16.09 Fair CLR 0 -5 69% 76.56 0.0
03 00:55 NW 7 16.09 Fair CLR 1 -5 65% -1 76.56 0.0
03 00:35 NW 11 16.09 Fair CLR 1 -5 65% -2 76.56 0.0
03 00:15 NW 11 16.09 Fair CLR 2 -5 60% -1 76.56 0.0
02 23:55 W 11 16.09 Fair CLR 2 -5 60% -1 76.58 0.0
02 23:35 NW 7 16.09 Fair CLR 3 -5 56% 1 76.58 0.0
02 23:15 W 9 16.09 Fair CLR 3 -5 56% 1 76.56 0.0
02 22:55 NW 7 16.09 Fair CLR 4 -5 52% 2 76.58 0.0
02 22:35 W 11 16.09 Fair CLR 3 -5 56% 0 76.58 0.0
02 22:15 W 11 16.09 Fair CLR 5 -5 49% 3 76.58 0.0
02 21:55 NW 13 16.09 Fair CLR 6 -5 46% 4 76.56 0.0
02 21:35 NW 15 16.09 Fair CLR 7 -6 39% 5 76.53 0.0
02 21:15 NW 13 16.09 Fair CLR 7 -5 43% 5 76.53 0.0
02 20:55 NW 9 16.09 Fair CLR 9 -5 37% 8 76.53 0.0
02 20:35 NW 13 16.09 Fair CLR 10 -6 32% 8 76.48 0.0
02 20:15 NW 15 16.09 Partly Cloudy SCT110 12 -6 28% 76.48 0.0
02 19:55 NW 17 16.09 Mostly Cloudy BKN110 13 -6 26% 76.48 0.0
02 19:35 NW 17 16.09 Mostly Cloudy BKN110 15 -7 21% 76.45 0.0
02 19:15 NW 24 16.09 Mostly Cloudy BKN120 16 -8 19% 76.45 0.0
02 18:55 W 26 G 35 16.09 Mostly Cloudy BKN120 16 -9 17% 76.45 0.0
02 18:35 NW 20 16.09 Mostly Cloudy BKN120 16 -9 17% 76.45 0.0
02 18:15 W 9 16.09 Partly Cloudy SCT120 17 -10 15% 76.48 0.0
02 17:55 W 9 16.09 Partly Cloudy SCT110 16 -10 16% 76.48 0.0
02 17:35 NW 17 16.09 Mostly Cloudy BKN110 17 -10 15% 76.48 0.0
02 17:15 N 6 16.09 Partly Cloudy SCT110 17 -10 15% 76.48 0.0
02 16:55 W 9 16.09 Mostly Cloudy BKN110 17 -10 15% 76.53 0.0
02 16:35 NW 13 16.09 Overcast OVC110 17 -10 15% 76.53 0.0
02 16:15 N 9 16.09 Partly Cloudy SCT110 17 -10 15% 76.56 0.0
02 15:55 SE 7 16.09 Fair CLR 17 -11 14% 76.58 0.0
02 15:35 NW 7 16.09 Fair CLR 16 -11 15% 76.61 0.0
02 15:15 NW 11 16.09 Fair CLR 16 -11 15% 76.63 0.0
02 14:55 Calm 16.09 Fair CLR 16 -11 15% 76.66 0.0
02 14:35 SE 7 16.09 Fair CLR 16 -11 15% 76.66 0.0
02 14:15 S 6 16.09 Fair CLR 16 -11 15% 76.68 0.0
02 13:55 NW 13 16.09 Fair CLR 15 -12 14% 76.71 0.0
02 13:35 N 9 16.09 Fair CLR 15 -12 14% 76.73 0.0
02 13:15 SW 9 16.09 Fair CLR 15 -12 14% 76.73 0.0
02 12:55 SW 13 16.09 Fair CLR 14 -12 15% 76.78 0.0
02 12:35 W 15 16.09 Fair CLR 14 -12 15% 76.81 0.0
02 12:15 N 6 16.09 Fair CLR 13 -11 18% 76.81 0.0
02 11:55 NW 7 16.09 Fair CLR 13 -11 18% 76.84 0.0
02 11:35 Calm 16.09 Fair CLR 13 -11 18% 76.86 0.0
02 11:15 Calm 16.09 Fair CLR 13 -9 21% 76.86 0.0
02 10:55 NE 6 16.09 Fair CLR 12 -10 21% 76.86 0.0
02 10:35 Calm 16.09 Fair CLR 11 -11 20% 76.86 0.0
02 10:15 SE 7 16.09 Fair CLR 11 -10 22% 76.89 0.0
02 09:55 Calm 16.09 Fair CLR 9 -10 25% 76.89 0.0
02 09:35 Calm 16.09 Fair CLR 8 -6 37% 76.89 0.0
02 09:15 NW 6 16.09 Fair CLR 7 -6 39% 76.89 0.0
02 08:55 NW 9 16.09 Fair CLR 6 -5 46% 4 76.91 0.0
02 08:35 NW 9 16.09 Fair CLR 4 -4 56% 2 76.89 0.0
02 08:15 NW 9 16.09 Fair CLR 1 -5 65% -2 76.91 0.0
02 07:55 NW 11 16.09 Fair CLR 0 -5 69% -3 76.91 0.0
02 07:35 NW 7 16.09 Fair CLR -1 -5 75% -3 76.91 0.0
02 07:15 W 9 16.09 Fair CLR -3 -6 80% -6 76.89 0.0
02 06:55 NW 6 16.09 Fair CLR -3 -6 80% 76.89 0.0
02 06:35 NW 7 16.09 Fair CLR -5 -7 86% -8 76.89 0.0
02 06:15 NW 6 16.09 Fair CLR -5 -7 86% 76.89 0.0
02 05:55 NW 7 16.09 Fair CLR -5 -7 86% -8 76.89 0.0
02 05:35 NW 9 16.09 Fair CLR -4 -6 86% -7 76.89 0.0
02 05:15 W 11 16.09 Fair CLR -4 -6 86% -8 76.89 0.0
02 04:55 NW 6 16.09 Fair CLR -4 -7 80% 76.91 0.0
02 04:35 NW 6 16.09 Fair CLR -4 -7 80% 76.89 0.0
02 04:15 NW 6 16.09 Fair CLR -3 -6 80% 76.89 0.0
02 03:55 NW 9 16.09 Fair CLR -2 -5 80% -5 76.89 0.0
02 03:35 W 9 16.09 Fair CLR -3 -5 86% -6 76.89 0.0
02 03:15 W 7 16.09 Fair CLR -2 -6 74% -4 76.89 0.0
02 02:55 W 6 16.09 Fair CLR -3 -5 86% 76.89 0.0
02 02:35 NW 6 16.09 Fair CLR -2 -5 80% 76.89 0.0
02 02:15 W 6 16.09 Fair CLR -1 -5 75% 76.89 0.0
02 01:55 Calm 16.09 Fair CLR -1 -5 75% 76.89 0.0
02 01:35 Calm 16.09 Fair CLR 0 -5 69% 76.89 0.0
02 01:15 Calm 16.09 Fair CLR 0 -6 64% 76.89 0.0
02 00:55 Calm 16.09 Fair CLR 1 -6 60% 76.89 0.0
02 00:35 NE 6 16.09 Fair CLR 1 -6 60% 76.89 0.0
02 00:15 E 7 16.09 Fair CLR 1 -6 60% -1 76.86 0.0
01 23:55 E 7 16.09 Fair CLR 2 -6 56% 0 76.86 0.0
01 23:35 SE 7 16.09 Fair CLR 1 -6 60% -1 76.84 0.0
01 23:15 SE 13 16.09 Fair CLR 2 -6 56% -1 76.84 0.0
01 22:55 E 15 16.09 Fair CLR 2 -5 60% -2 76.81 0.0
01 22:35 SE 13 16.09 Fair CLR 2 -6 56% -1 76.81 0.0
01 22:15 SE 6 16.09 Fair CLR 5 -7 42% 76.81 0.0
01 21:55 E 6 16.09 Fair CLR 5 -5 49% 76.81 0.0
01 21:35 Calm 16.09 Fair CLR 6 -6 42% 76.78 0.0
01 21:15 N 6 16.09 Fair CLR 6 -5 46% 76.73 0.0
01 20:55 Calm 16.09 Fair CLR 7 -7 37% 76.71 0.0
01 20:35 Calm 16.09 Fair CLR 9 -8 29% 76.68 0.0
01 20:15 SE 7 16.09 Fair CLR 11 -9 24% 76.68 0.0
01 19:55 Calm 16.09 Fair CLR 12 -11 19% 76.66 0.0
01 19:35 SE 7 16.09 Fair CLR 12 -12 18% 76.66 0.0
01 19:15 Calm 16.09 Fair CLR 13 -14 14% 76.66 0.0
01 18:55 SE 9 16.09 Fair CLR 13 -13 15% 76.66 0.0
01 18:35 Calm 16.09 Fair CLR 13 -15 13% 76.66 0.0
01 18:15 NE 9 16.09 Fair CLR 14 -13 14% 76.66 0.0
01 17:55 E 13 16.09 Fair CLR 14 -14 13% 76.66 0.0
01 17:35 Calm 16.09 Fair CLR 13 -15 13% 76.66 0.0
01 17:15 NE 9 16.09 Fair CLR 14 -14 13% 76.66 0.0
01 16:55 Calm 16.09 Partly Cloudy SCT110 13 -12 16% 76.66 0.0
01 16:35 W 7 16.09 Partly Cloudy SCT110 13 -12 16% 76.66 0.0
01 16:15 SW 11 16.09 Partly Cloudy SCT100 13 -11 18% 76.66 0.0
01 15:55 W 11 16.09 Fair CLR 13 -11 18% 76.68 0.0
01 15:35 NE 7 16.09 Fair CLR 12 -12 18% 76.68 0.0
01 15:15 SW 11 16.09 Fair CLR 13 -10 19% 76.73 0.0
01 14:55 NW 13 16.09 Fair CLR 12 -10 21% 76.73 0.0
01 14:35 Calm 16.09 Fair CLR 12 -11 19% 76.73 0.0
01 14:15 N 7 16.09 Fair CLR 11 -10 22% 76.76 0.0
01 13:55 Calm 16.09 Fair CLR 11 -10 22% 76.76 0.0
01 13:35 Calm 16.09 Fair CLR 11 -8 26% 76.76 0.0
01 13:15 W 11 16.09 Fair CLR 10 -8 28% 9 76.76 0.0
01 12:55 Calm 16.09 Fair CLR 10 -7 30% 76.78 0.0
01 12:35 SW 6 16.09 Fair CLR 8 -6 37% 76.81 0.0
01 12:15 Calm 16.09 Fair CLR 8 -6 37% 76.81 0.0
01 11:55 W 6 16.09 Fair CLR 7 -5 43% 76.81 0.0
01 11:35 Calm 16.09 Fair CLR 7 -4 46% 76.84 0.0
01 11:15 Calm 16.09 Fair CLR 6 -2 57% 76.84 0.0
01 10:55 W 9 16.09 Fair CLR 6 -1 61% 4 76.86 0.0
01 10:35 W 11 16.09 Fair CLR 5 -1 66% 3 76.86 0.0
01 10:15 W 6 16.09 Fair CLR 3 -2 70% 76.86 0.0
01 09:55 Calm 16.09 Fair CLR 1 -1 87% 76.86 0.0
01 09:35 W 6 16.09 Fair CLR 0 -1 93% 76.86 0.0
01 09:15 W 6 16.09 Fair CLR 0 -2 87% 76.86 0.0
01 08:55 NW 7 16.09 Fair CLR -1 -3 86% -3 76.86 0.0
01 08:35 W 6 16.09 Fair CLR -2 -4 86% 76.86 0.0
01 08:15 W 7 16.09 Fair CLR -3 -5 86% -6 76.86 0.0
01 07:55 W 11 16.09 Fair CLR -4 -6 86% -8 76.86 0.0
01 07:35 NW 11 16.09 Fair CLR -5 -6 93% -9 76.84 0.0
01 07:15 W 7 16.09 Fair CLR -6 -7 93% -9 76.81 0.0
01 06:55 W 7 16.09 Fair CLR -7 -8 93% -10 76.81 0.0
01 06:35 NW 9 16.09 Fair CLR -8 -9 93% -12 76.81 0.0
01 06:15 W 7 16.09 Fair CLR -8 -8 100% -11 76.78 0.0
01 05:55 NW 6 16.09 Fair CLR -7 -8 93% 76.78 0.0
01 05:35 NW 7 16.09 Fair CLR -7 -8 93% -10 76.78 0.0
01 05:15 NW 9 16.09 Fair CLR -7 -7 100% -11 76.81 0.0
01 04:55 NW 9 16.09 Fair CLR -7 -8 93% -11 76.81 0.0
01 04:35 W 9 16.09 Fair CLR -7 -8 93% -11 76.81 0.0
01 04:15 NW 7 16.09 Fair CLR -6 -7 93% -9 76.78 0.0
01 03:55 NW 7 16.09 Fair CLR -7 -7 100% -10 76.78 0.0
01 03:35 Calm 16.09 Fair CLR -6 -6 100% 76.78 0.0
01 03:15 NW 7 16.09 Fair CLR -6 -6 100% -9 76.81 0.0
01 02:55 NW 6 16.09 Fair CLR -6 -6 100% 76.81 0.0
01 02:35 NW 9 16.09 Fair CLR -5 -6 93% -9 76.81 0.0
01 02:15 NW 9 16.09 Fair CLR -5 -6 93% -9 76.81 0.0
01 01:55 NW 6 16.09 Fair CLR -6 -6 100% 76.81 0.0
01 01:35 W 7 16.09 Fair CLR -5 -6 93% -8 76.84 0.0
01 01:15 NW 6 16.09 Fair CLR -5 -6 93% 76.84 0.0
01 00:55 W 9 16.09 Fair CLR -4 -5 93% -7 76.84 0.0
01 00:35 NW 7 16.09 Partly Cloudy SCT070 -3 -4 93% -6 76.84 0.0
01 00:15 W 9 16.09 Mostly Cloudy BKN070 -3 -3 100% -6 76.84 0.0
30 23:55 W 9 16.09 Overcast OVC070 -3 -4 93% -6 76.84 0.0
30 23:35 W 6 16.09 Overcast OVC070 -3 -3 100% 76.84 0.0
30 22:55 N 7 16.09 Mostly Cloudy BKN070 -2 -3 93% -4 76.81 0.0
30 22:35 NW 7 16.09 Partly Cloudy SCT070 -2 -2 100% -4 76.78 0.0
30 22:15 W 6 16.09 Mostly Cloudy BKN070 -1 -2 93% 76.78 0.0
30 21:55 W 6 16.09 Overcast OVC070 -1 -2 93% 76.78 0.0
30 21:35 Calm 16.09 Mostly Cloudy BKN070 -1 -1 100% 76.76 0.0
30 21:15 NE 6 16.09 Fair CLR 0 0 100% 76.76 0.0
30 20:55 NE 7 16.09 Partly Cloudy SCT120 0 0 100% -2 76.73 0.0
30 20:35 E 11 16.09 Mostly Cloudy BKN120 0 0 100% -3 76.73 0.0
Date Time (mdt) Wind (kph) Vis. (km) Weather Sky Cond. Air Dwpt Max. Min. Relative Humidity Wind Chill (°C) Heat Index (°C) altimeter (cm) sea level (mb) 1 hr 3 hr 6 hr
6 hour
Temperature (ºC) Pressure Precipitation (cm)